createdAt,value
2022-10-19T00:01:20.900Z,9.98
2022-10-19T00:03:52.244Z,9.93
2022-10-19T00:06:26.537Z,9.97
2022-10-19T00:09:06.724Z,9.96
2022-10-19T00:11:38.264Z,10.08
2022-10-19T00:14:07.422Z,10.22
2022-10-19T00:16:38.231Z,10.29
2022-10-19T00:19:13.140Z,10.27
2022-10-19T00:21:41.372Z,10.21
2022-10-19T00:24:09.566Z,10.17
2022-10-19T00:26:37.310Z,10.17
2022-10-19T00:29:05.907Z,10.15
2022-10-19T00:31:34.019Z,10.08
2022-10-19T00:34:01.595Z,10.07
2022-10-19T00:36:32.152Z,10.11
2022-10-19T00:39:00.921Z,10.08
2022-10-19T00:41:31.028Z,10.02
2022-10-19T00:44:11.555Z,9.91
2022-10-19T00:46:53.177Z,9.90
2022-10-19T00:49:23.679Z,9.90
2022-10-19T00:51:55.744Z,9.98
2022-10-19T00:54:25.316Z,9.95
2022-10-19T00:56:57.930Z,9.98
2022-10-19T00:59:28.263Z,10.05
2022-10-19T01:01:55.998Z,10.10
2022-10-19T01:04:25.774Z,10.21
2022-10-19T01:06:54.338Z,10.35
2022-10-19T01:09:22.073Z,10.41
2022-10-19T01:12:07.591Z,10.40
2022-10-19T01:14:45.971Z,10.49
2022-10-19T01:17:36.539Z,10.58
2022-10-19T01:20:28.932Z,10.62
2022-10-19T01:23:11.330Z,10.69
2022-10-19T01:25:44.817Z,10.73
2022-10-19T01:28:36.756Z,10.79
2022-10-19T01:31:17.007Z,10.83
2022-10-19T01:33:58.583Z,10.87
2022-10-19T01:36:46.893Z,10.89
2022-10-19T01:39:54.938Z,11.00
2022-10-19T01:42:33.249Z,11.14
2022-10-19T01:45:24.975Z,11.25
2022-10-19T01:48:12.535Z,11.37
2022-10-19T01:51:01.638Z,11.50
2022-10-19T01:53:33.197Z,11.60
2022-10-19T01:56:03.378Z,11.63
2022-10-19T01:58:36.073Z,11.68
2022-10-19T02:03:38.135Z,11.78
2022-10-19T02:06:08.979Z,11.87
2022-10-19T02:08:46.550Z,11.88
2022-10-19T02:11:15.366Z,11.90
2022-10-19T02:13:45.251Z,11.90
2022-10-19T02:16:18.447Z,11.94
2022-10-19T02:18:50.656Z,11.94
2022-10-19T02:21:19.267Z,11.98
2022-10-19T02:23:49.308Z,12.02
2022-10-19T02:26:20.754Z,12.04
2022-10-19T02:28:49.258Z,12.11
2022-10-19T02:31:17.008Z,12.12
2022-10-19T02:33:44.495Z,12.13
2022-10-19T02:36:12.294Z,12.18
2022-10-19T02:38:41.806Z,12.26
2022-10-19T02:41:29.589Z,12.30
2022-10-19T02:44:15.068Z,12.35
2022-10-19T02:46:50.340Z,12.37
2022-10-19T02:49:18.778Z,12.38
2022-10-19T02:52:04.519Z,12.45
2022-10-19T02:54:32.599Z,12.28
2022-10-19T02:57:00.195Z,12.26
2022-10-19T02:59:27.682Z,12.26
2022-10-19T03:01:55.538Z,12.15
2022-10-19T03:04:22.906Z,12.11
2022-10-19T03:06:50.344Z,12.00
2022-10-19T03:09:18.145Z,11.93
2022-10-19T03:11:45.518Z,11.91
2022-10-19T03:14:12.932Z,11.88
2022-10-19T03:16:40.613Z,11.80
2022-10-19T03:19:08.058Z,11.82
2022-10-19T03:21:35.574Z,11.80
2022-10-19T03:24:03.304Z,11.87
2022-10-19T03:26:30.709Z,11.91
2022-10-19T03:28:58.156Z,11.96
2022-10-19T03:31:27.203Z,11.94
2022-10-19T03:33:54.635Z,12.03
2022-10-19T03:36:25.275Z,11.98
2022-10-19T03:38:59.041Z,12.04
2022-10-19T03:41:31.521Z,12.09
2022-10-19T03:46:32.890Z,12.03
2022-10-19T03:49:00.583Z,11.99
2022-10-19T03:51:29.848Z,12.07
2022-10-19T03:54:03.958Z,12.08
2022-10-19T03:56:33.114Z,12.07
2022-10-19T03:59:02.162Z,12.25
2022-10-19T04:01:35.964Z,12.19
2022-10-19T04:04:15.893Z,12.17
2022-10-19T04:06:45.815Z,12.19
2022-10-19T04:09:16.684Z,12.18
2022-10-19T04:11:44.819Z,12.05
2022-10-19T04:14:26.613Z,12.00
2022-10-19T04:17:04.023Z,11.95
2022-10-19T04:19:31.826Z,11.84
2022-10-19T04:21:59.368Z,11.99
2022-10-19T04:24:27.755Z,12.07
2022-10-19T04:26:56.515Z,12.15
2022-10-19T04:29:29.669Z,12.05
2022-10-19T04:31:59.528Z,12.07
2022-10-19T04:34:27.307Z,12.17
2022-10-19T04:36:54.730Z,12.28
2022-10-19T04:39:22.425Z,12.31
2022-10-19T04:41:49.793Z,12.31
2022-10-19T04:44:17.160Z,12.34
2022-10-19T04:46:44.828Z,12.40
2022-10-19T04:49:15.147Z,12.45
2022-10-19T04:51:45.519Z,12.46
2022-10-19T04:54:12.874Z,12.45
2022-10-19T04:56:40.247Z,12.51
2022-10-19T04:59:07.874Z,12.53
2022-10-19T05:01:35.795Z,12.59
2022-10-19T05:04:03.742Z,12.68
2022-10-19T05:06:32.160Z,12.74
2022-10-19T05:09:00.359Z,12.77
2022-10-19T05:23:06.291Z,13.71
2022-10-19T05:25:35.317Z,13.71
2022-10-19T05:28:02.762Z,13.06
2022-10-19T05:30:30.099Z,13.08
2022-10-19T05:32:57.827Z,13.10
2022-10-19T05:35:25.233Z,13.16
2022-10-19T05:37:55.865Z,13.22
2022-10-19T05:40:23.657Z,13.30
2022-10-19T05:42:51.040Z,13.39
2022-10-19T05:45:18.460Z,13.50
2022-10-19T05:47:46.187Z,13.56
2022-10-19T05:50:13.608Z,13.62
2022-10-19T05:52:41.043Z,13.64
2022-10-19T05:55:09.554Z,13.68
2022-10-19T05:57:37.316Z,13.74
2022-10-19T06:00:05.506Z,13.77
2022-10-19T06:02:39.192Z,13.77
2022-10-19T06:05:07.425Z,13.83
2022-10-19T06:07:34.923Z,13.87
2022-10-19T06:10:02.450Z,13.89
2022-10-19T06:12:30.199Z,13.97
2022-10-19T06:14:57.577Z,14.05
2022-10-19T06:17:27.907Z,14.08
2022-10-19T06:19:55.612Z,14.12
2022-10-19T06:22:23.016Z,14.17
2022-10-19T06:24:51.091Z,14.18
2022-10-19T06:27:18.811Z,14.20
2022-10-19T06:29:46.206Z,14.25
2022-10-19T06:32:13.619Z,14.29
2022-10-19T06:34:41.344Z,14.33
2022-10-19T06:37:08.772Z,14.43
2022-10-19T06:39:36.164Z,14.53
2022-10-19T06:42:03.957Z,14.63
2022-10-19T06:44:31.373Z,14.72
2022-10-19T06:46:58.768Z,14.84
2022-10-19T06:49:26.447Z,15.02
2022-10-19T06:51:53.828Z,15.11
2022-10-19T06:54:21.248Z,15.36
2022-10-19T06:59:17.715Z,15.84
2022-10-19T07:01:45.251Z,16.10
2022-10-19T07:04:12.920Z,16.31
2022-10-19T07:06:40.313Z,16.47
2022-10-19T07:09:07.787Z,16.69
2022-10-19T07:11:35.508Z,16.84
2022-10-19T07:14:02.972Z,17.10
2022-10-19T07:16:30.372Z,17.21
2022-10-19T07:18:58.039Z,17.40
2022-10-19T07:21:25.411Z,17.54
2022-10-19T07:23:52.835Z,17.69
2022-10-19T07:26:24.653Z,17.76
2022-10-19T07:28:53.031Z,17.97
2022-10-19T07:31:23.235Z,18.23
2022-10-19T07:33:55.226Z,18.36
2022-10-19T07:36:23.982Z,18.58
2022-10-19T07:38:51.879Z,18.78
2022-10-19T07:41:21.303Z,19.07
2022-10-19T07:43:50.143Z,19.27
2022-10-19T07:46:22.616Z,19.17
2022-10-19T07:48:50.301Z,19.41
2022-10-19T07:51:19.198Z,19.56
2022-10-19T07:53:47.048Z,19.68
2022-10-19T07:56:25.467Z,19.74
2022-10-19T07:58:55.584Z,19.94
2022-10-19T08:01:29.835Z,20.14
2022-10-19T08:04:49.063Z,20.28
2022-10-19T08:06:46.602Z,20.56
2022-10-19T08:09:33.476Z,20.81
2022-10-19T08:12:02.240Z,20.89
2022-10-19T08:14:30.027Z,20.93
2022-10-19T08:16:57.460Z,20.75
2022-10-19T08:19:24.826Z,20.94
2022-10-19T08:21:52.495Z,20.90
2022-10-19T08:24:20.827Z,21.03
2022-10-19T08:26:51.232Z,21.12
2022-10-19T08:29:20.816Z,21.29
2022-10-19T08:31:49.554Z,21.33
2022-10-19T08:34:17.323Z,21.28
2022-10-19T08:36:45.180Z,21.41
2022-10-19T08:39:13.567Z,21.80
2022-10-19T08:41:40.992Z,21.69
2022-10-19T08:44:31.992Z,21.91
2022-10-19T08:47:22.340Z,22.09
2022-10-19T08:49:51.756Z,22.19
2022-10-19T08:52:34.187Z,21.99
2022-10-19T08:55:09.199Z,22.06
2022-10-19T08:57:55.968Z,22.04
2022-10-19T09:00:47.761Z,22.22
2022-10-19T09:03:54.404Z,22.31
2022-10-19T09:06:28.325Z,22.51
2022-10-19T09:08:57.875Z,22.76
2022-10-19T09:11:30.509Z,22.74
2022-10-19T09:14:07.718Z,22.65
2022-10-19T09:16:35.459Z,22.94
2022-10-19T09:19:11.583Z,22.85
2022-10-19T09:22:08.985Z,22.67
2022-10-19T09:24:56.107Z,23.11
2022-10-19T09:27:36.469Z,23.28
2022-10-19T09:30:16.122Z,23.48
2022-10-19T09:32:43.792Z,23.54
2022-10-19T09:35:13.960Z,23.86
2022-10-19T09:37:46.039Z,24.00
2022-10-19T09:40:19.465Z,24.11
2022-10-19T09:42:48.153Z,24.04
2022-10-19T09:45:42.167Z,24.08
2022-10-19T09:48:31.432Z,24.09
2022-10-19T09:51:01.914Z,24.24
2022-10-19T09:53:30.270Z,24.41
2022-10-19T09:56:06.791Z,24.48
2022-10-19T09:58:35.686Z,24.47
2022-10-19T10:01:03.650Z,24.44
2022-10-19T10:03:43.648Z,24.38
2022-10-19T10:06:15.847Z,24.80
2022-10-19T10:08:49.547Z,24.93
2022-10-19T10:11:34.057Z,25.21
2022-10-19T10:14:14.703Z,25.17
2022-10-19T10:16:42.155Z,25.38
2022-10-19T10:19:14.257Z,25.42
2022-10-19T10:21:52.821Z,25.41
2022-10-19T10:24:23.450Z,25.45
2022-10-19T10:26:56.365Z,25.40
2022-10-19T10:29:35.756Z,25.74
2022-10-19T10:32:17.913Z,25.78
2022-10-19T10:34:51.997Z,25.69
2022-10-19T10:37:28.180Z,25.39
2022-10-19T10:40:00.315Z,25.44
2022-10-19T10:42:36.813Z,25.37
2022-10-19T10:45:09.917Z,25.35
2022-10-19T10:47:39.379Z,25.32
2022-10-19T10:50:07.880Z,25.17
2022-10-19T10:52:37.143Z,25.06
2022-10-19T10:55:11.286Z,25.30
2022-10-19T10:57:44.844Z,25.31
2022-10-19T11:00:16.721Z,24.96
2022-10-19T11:02:48.068Z,24.94
2022-10-19T11:05:19.353Z,24.85
2022-10-19T11:07:52.038Z,24.90
2022-10-19T11:10:39.575Z,25.12
2022-10-19T11:13:18.163Z,25.25
2022-10-19T11:16:02.778Z,25.26
2022-10-19T11:18:42.357Z,25.13
2022-10-19T11:21:11.755Z,25.04
2022-10-19T11:23:48.815Z,24.50
2022-10-19T11:26:28.180Z,24.67
2022-10-19T11:29:20.910Z,24.49
2022-10-19T11:31:51.733Z,24.40
2022-10-19T11:35:01.315Z,24.44
2022-10-19T11:37:49.826Z,24.67
2022-10-19T11:40:40.299Z,24.60
2022-10-19T11:43:26.308Z,24.53
2022-10-19T11:46:13.320Z,24.59
2022-10-19T11:48:52.933Z,24.55
2022-10-19T11:51:37.347Z,24.60
2022-10-19T11:54:16.753Z,24.60
2022-10-19T11:57:03.585Z,24.37
2022-10-19T12:00:03.730Z,24.51
2022-10-19T12:03:27.206Z,24.55
2022-10-19T12:06:13.860Z,24.51
2022-10-19T12:09:04.907Z,24.37
2022-10-19T12:11:52.147Z,24.40
2022-10-19T12:14:26.635Z,24.65
2022-10-19T12:16:58.937Z,24.57
2022-10-19T12:19:32.051Z,24.18
2022-10-19T12:22:02.696Z,24.18
2022-10-19T12:24:32.976Z,24.49
2022-10-19T12:27:01.918Z,24.35
2022-10-19T12:29:37.595Z,24.26
2022-10-19T12:32:07.054Z,24.22
2022-10-19T12:35:00.299Z,23.97
2022-10-19T12:37:51.374Z,23.88
2022-10-19T12:40:44.634Z,23.86
2022-10-19T12:43:14.863Z,23.82
2022-10-19T12:46:04.763Z,23.97
2022-10-19T12:48:32.236Z,23.75
2022-10-19T12:51:02.860Z,23.77
2022-10-19T12:53:40.032Z,23.95
2022-10-19T12:56:10.282Z,24.03
2022-10-19T12:58:50.832Z,24.08
2022-10-19T13:01:29.344Z,23.64
2022-10-19T13:04:26.464Z,23.65
2022-10-19T13:06:56.896Z,23.45
2022-10-19T13:09:30.886Z,23.49
2022-10-19T13:12:16.513Z,23.55
2022-10-19T13:14:57.376Z,23.45
2022-10-19T13:17:34.680Z,23.48
2022-10-19T13:20:14.629Z,23.57
2022-10-19T13:22:50.910Z,23.58
2022-10-19T13:25:21.578Z,23.54
2022-10-19T13:27:51.867Z,23.63
2022-10-19T13:30:43.920Z,23.66
2022-10-19T13:33:24.731Z,23.42
2022-10-19T13:36:01.031Z,23.52
2022-10-19T13:38:55.868Z,23.31
2022-10-19T13:41:48.070Z,23.42
2022-10-19T13:44:34.015Z,23.00
2022-10-19T13:47:32.650Z,22.97
2022-10-19T13:50:13.568Z,22.76
2022-10-19T13:53:11.868Z,22.66
2022-10-19T13:55:55.828Z,22.62
2022-10-19T13:58:32.536Z,22.60
2022-10-19T14:01:24.652Z,22.65
2022-10-19T14:04:07.344Z,22.57
2022-10-19T14:06:48.135Z,22.47
2022-10-19T14:09:32.242Z,22.09
2022-10-19T14:12:07.350Z,22.18
2022-10-19T14:14:43.433Z,22.17
2022-10-19T14:17:15.254Z,22.11
2022-10-19T14:19:46.795Z,22.06
2022-10-19T14:22:34.053Z,22.03
2022-10-19T14:25:18.895Z,21.83
2022-10-19T14:27:48.262Z,21.71
2022-10-19T14:30:26.454Z,21.74
2022-10-19T14:32:58.085Z,21.82
2022-10-19T14:35:31.942Z,21.42
2022-10-19T14:38:00.420Z,21.39
2022-10-19T14:40:33.524Z,21.18
2022-10-19T14:43:01.962Z,21.12
2022-10-19T14:45:32.073Z,21.06
2022-10-19T14:48:17.038Z,21.03
2022-10-19T14:50:50.481Z,21.03
2022-10-19T14:53:30.074Z,21.04
2022-10-19T14:56:06.559Z,20.89
2022-10-19T14:58:40.791Z,20.78
2022-10-19T15:01:12.365Z,20.71
2022-10-19T15:03:43.630Z,20.57
2022-10-19T15:06:27.336Z,20.54
2022-10-19T15:09:02.366Z,20.44
2022-10-19T15:11:36.664Z,20.41
2022-10-19T15:14:09.852Z,20.29
2022-10-19T15:16:54.056Z,20.10
2022-10-19T15:19:33.579Z,20.07
2022-10-19T15:22:19.696Z,19.88
2022-10-19T15:25:19.768Z,19.73
2022-10-19T15:27:50.119Z,19.62
2022-10-19T15:30:18.127Z,19.47
2022-10-19T15:33:03.342Z,19.36
2022-10-19T15:35:32.298Z,19.21
2022-10-19T15:38:10.157Z,19.07
2022-10-19T15:40:46.351Z,18.95
2022-10-19T15:43:33.046Z,18.81
2022-10-19T15:46:01.647Z,18.73
2022-10-19T15:48:50.090Z,18.54
2022-10-19T15:51:23.362Z,18.52
2022-10-19T15:53:52.390Z,18.38
2022-10-19T15:56:21.621Z,18.19
2022-10-19T15:58:54.153Z,18.08
2022-10-19T16:01:26.756Z,18.05
2022-10-19T16:03:55.873Z,17.97
2022-10-19T16:06:27.056Z,17.79
2022-10-19T16:08:55.532Z,17.75
2022-10-19T16:11:23.457Z,17.71
2022-10-19T16:13:51.120Z,17.61
2022-10-19T16:16:23.420Z,17.58
2022-10-19T16:18:51.650Z,17.48
2022-10-19T16:21:21.976Z,17.41
2022-10-19T16:23:49.527Z,17.33
2022-10-19T16:26:17.433Z,17.22
2022-10-19T16:28:45.429Z,17.20
2022-10-19T16:31:12.873Z,17.10
2022-10-19T16:33:40.432Z,17.07
2022-10-19T16:36:08.777Z,17.00
2022-10-19T16:38:36.714Z,16.94
2022-10-19T16:41:09.704Z,16.93
2022-10-19T16:43:37.634Z,16.84
2022-10-19T16:46:05.792Z,16.84
2022-10-19T16:48:33.704Z,16.70
2022-10-19T16:51:07.371Z,16.62
2022-10-19T16:53:35.780Z,16.51
2022-10-19T16:56:08.524Z,16.49
2022-10-19T16:58:37.280Z,16.45
2022-10-19T17:01:08.535Z,16.39
2022-10-19T17:03:36.286Z,16.34
2022-10-19T17:06:07.777Z,16.27
2022-10-19T17:09:02.338Z,16.27
2022-10-19T17:11:30.675Z,16.21
2022-10-19T17:14:01.833Z,16.21
2022-10-19T17:16:32.239Z,16.18
2022-10-19T17:19:01.512Z,16.13
2022-10-19T17:21:31.930Z,16.04
2022-10-19T17:24:02.249Z,16.00
2022-10-19T17:26:39.221Z,15.93
2022-10-19T17:29:07.072Z,15.88
2022-10-19T17:31:36.162Z,15.85
2022-10-19T17:34:04.516Z,15.78
2022-10-19T17:36:36.303Z,15.72
2022-10-19T17:39:07.208Z,15.68
2022-10-19T17:41:35.578Z,15.61
2022-10-19T17:44:04.449Z,15.59
2022-10-19T17:46:34.594Z,15.53
2022-10-19T17:49:02.900Z,15.47
2022-10-19T17:51:32.681Z,15.48
2022-10-19T17:54:05.863Z,15.41
2022-10-19T17:56:34.787Z,15.38
2022-10-19T17:59:07.460Z,15.19
2022-10-19T18:01:36.322Z,15.02
2022-10-19T18:04:04.953Z,14.88
2022-10-19T18:06:35.413Z,14.83
2022-10-19T18:09:05.847Z,14.91
2022-10-19T18:11:38.600Z,14.87
2022-10-19T18:14:08.367Z,14.78
2022-10-19T18:16:44.627Z,14.58
2022-10-19T18:19:16.366Z,14.42
2022-10-19T18:21:45.517Z,14.13
2022-10-19T18:24:19.135Z,13.97
2022-10-19T18:26:48.144Z,13.88
2022-10-19T18:29:18.975Z,13.77
2022-10-19T18:31:52.403Z,13.52
2022-10-19T18:34:23.064Z,13.39
2022-10-19T18:36:51.508Z,13.40
2022-10-19T18:39:19.111Z,13.31
2022-10-19T18:41:48.294Z,13.24
2022-10-19T18:44:15.983Z,13.19
2022-10-19T18:46:43.450Z,13.34
2022-10-19T18:49:11.234Z,13.38
2022-10-19T18:51:38.960Z,13.48
2022-10-19T18:54:06.373Z,13.57
2022-10-19T18:56:36.553Z,13.68
2022-10-19T18:59:05.205Z,13.72
2022-10-19T19:01:32.947Z,13.77
2022-10-19T19:04:07.228Z,13.74
2022-10-19T19:06:36.337Z,13.59
2022-10-19T19:09:08.628Z,13.38
2022-10-19T19:11:38.399Z,13.28
2022-10-19T19:14:15.565Z,13.27
2022-10-19T19:16:44.986Z,13.22
2022-10-19T19:19:14.582Z,13.10
2022-10-19T19:21:46.260Z,13.04
2022-10-19T19:24:17.396Z,12.94
2022-10-19T19:26:49.441Z,12.93
2022-10-19T19:29:18.196Z,12.98
2022-10-19T19:31:47.198Z,13.04
2022-10-19T19:34:14.652Z,13.03
2022-10-19T19:36:47.464Z,13.01
2022-10-19T19:39:18.749Z,12.83
2022-10-19T19:41:47.660Z,12.85
2022-10-19T19:44:15.598Z,12.88
2022-10-19T19:46:43.055Z,12.89
2022-10-19T19:49:11.204Z,12.83
2022-10-19T19:51:38.724Z,12.76
2022-10-19T19:54:06.364Z,12.62
2022-10-19T19:56:34.179Z,12.64
2022-10-19T19:59:03.767Z,12.57
2022-10-19T20:01:32.368Z,12.44
2022-10-19T20:06:31.604Z,12.36
2022-10-19T20:08:59.076Z,12.26
2022-10-19T20:11:28.889Z,12.28
2022-10-19T20:13:56.618Z,12.26
2022-10-19T20:16:29.185Z,12.09
2022-10-19T20:19:08.473Z,12.02
2022-10-19T20:21:36.585Z,12.03
2022-10-19T20:24:04.739Z,12.10
2022-10-19T20:26:32.532Z,11.96
2022-10-19T20:29:01.858Z,11.85
2022-10-19T20:31:31.360Z,11.81
2022-10-19T20:33:58.870Z,11.77
2022-10-19T20:36:26.480Z,11.72
2022-10-19T20:38:56.083Z,11.70
2022-10-19T20:41:25.534Z,11.67
2022-10-19T20:43:54.303Z,11.70
2022-10-19T20:46:25.130Z,11.68
2022-10-19T20:48:54.710Z,11.69
2022-10-19T20:51:33.411Z,11.74
2022-10-19T20:54:02.484Z,11.73
2022-10-19T20:56:33.078Z,11.71
2022-10-19T21:01:37.375Z,11.72
2022-10-19T21:04:08.028Z,11.53
2022-10-19T21:06:38.698Z,11.43
2022-10-19T21:09:06.947Z,11.45
2022-10-19T21:11:37.034Z,11.49
2022-10-19T21:14:12.679Z,11.40
2022-10-19T21:16:40.524Z,11.38
2022-10-19T21:19:12.000Z,11.45
2022-10-19T21:21:42.159Z,11.56
2022-10-19T21:24:21.475Z,11.67
2022-10-19T21:26:49.384Z,11.77
2022-10-19T21:29:17.487Z,11.83
2022-10-19T21:31:49.039Z,11.93
2022-10-19T21:34:19.967Z,11.95
2022-10-19T21:36:47.746Z,12.01
2022-10-19T21:39:15.248Z,12.06
2022-10-19T21:41:43.151Z,12.07
2022-10-19T21:44:10.669Z,12.08
2022-10-19T21:46:38.147Z,12.07
2022-10-19T21:49:05.970Z,12.12
2022-10-19T21:51:37.545Z,12.11
2022-10-19T21:56:39.234Z,12.09
2022-10-19T21:59:06.848Z,11.98
2022-10-19T22:01:38.626Z,11.87
2022-10-19T22:04:13.223Z,11.81
2022-10-19T22:06:41.446Z,11.78
2022-10-19T22:09:12.123Z,11.69
2022-10-19T22:11:39.680Z,11.57
2022-10-19T22:14:07.070Z,11.50
2022-10-19T22:16:36.962Z,11.40
2022-10-19T22:19:06.147Z,11.27
2022-10-19T22:21:34.785Z,11.19
2022-10-19T22:24:09.374Z,11.02
2022-10-19T22:26:40.476Z,11.05
2022-10-19T22:29:08.267Z,11.08
2022-10-19T22:31:36.910Z,11.04
2022-10-19T22:34:07.792Z,10.99
2022-10-19T22:36:35.906Z,10.93
2022-10-19T22:39:03.682Z,11.03
2022-10-19T22:42:27.614Z,11.07
2022-10-19T22:45:13.248Z,11.07
2022-10-19T22:47:41.005Z,11.04
2022-10-19T22:50:11.860Z,11.05
2022-10-19T22:52:39.414Z,11.13
2022-10-19T22:55:07.471Z,11.21
2022-10-19T22:57:34.944Z,11.21
2022-10-19T23:00:02.654Z,11.23
2022-10-19T23:02:30.386Z,11.22
2022-10-19T23:04:57.883Z,11.27
2022-10-19T23:07:25.391Z,11.20
2022-10-19T23:09:53.159Z,11.18
2022-10-19T23:12:20.761Z,11.10
2022-10-19T23:14:48.231Z,11.10
2022-10-19T23:17:16.213Z,11.20
2022-10-19T23:19:43.964Z,11.10
2022-10-19T23:22:11.368Z,10.97
2022-10-19T23:24:39.123Z,11.00
2022-10-19T23:27:06.562Z,10.97
2022-10-19T23:29:34.081Z,11.01
2022-10-19T23:32:01.836Z,10.96
2022-10-19T23:34:29.341Z,10.91
2022-10-19T23:36:56.796Z,10.89
2022-10-19T23:39:24.533Z,10.92
2022-10-19T23:41:51.946Z,10.89
2022-10-19T23:44:19.344Z,10.91
2022-10-19T23:46:47.059Z,10.88
2022-10-19T23:49:14.575Z,10.81
2022-10-19T23:51:41.973Z,10.75
2022-10-19T23:54:09.683Z,10.64
2022-10-19T23:56:37.091Z,10.70
2022-10-19T23:59:07.359Z,10.72
